Time;durP1;ratioP1;P1;durP2;ratioP2;P2;SDS_P1;SDS_P2;PMS_P1;PMS_P2;Temp;Humidity;BMP_temperature;BMP_pressure;BME280_temperature;BME280_humidity;BME280_pressure;Samples;Min_cycle;Max_cycle;Signal;HPM_P1;HPM_P2
2022/03/08 00:00:15;;;;;;;15.43;8.80;;;;;;;3.11;41.34;100395.03;4363192;32;32858;-86
2022/03/08 00:02:43;;;;;;;16.52;8.45;;;;;;;3.50;40.97;100394.84;4356123;32;33291;-86
2022/03/08 00:05:11;;;;;;;19.45;8.43;;;;;;;3.51;40.37;100396.59;4350729;32;33330;-86
2022/03/08 00:07:40;;;;;;;15.35;8.48;;;;;;;3.62;39.47;100406.97;4363228;32;32122;-86
2022/03/08 00:10:09;;;;;;;16.95;8.32;;;;;;;3.27;41.05;100408.00;4365676;32;34517;-86
2022/03/08 00:12:36;;;;;;;16.95;7.90;;;;;;;2.99;41.60;100398.53;4324275;33;33493;-86
2022/03/08 00:15:10;;;;;;;19.67;8.75;;;;;;;2.99;41.82;100403.75;4345424;32;33890;-86
2022/03/08 00:17:38;;;;;;;21.27;9.48;;;;;;;3.06;41.55;100400.28;4351047;32;32778;-86
2022/03/08 00:20:07;;;;;;;19.52;9.20;;;;;;;3.29;40.94;100402.81;4364023;32;33687;-88
2022/03/08 00:22:35;;;;;;;19.55;10.23;;;;;;;3.56;40.32;100402.66;4364013;32;33264;-88
2022/03/08 00:25:05;;;;;;;16.15;8.85;;;;;;;3.35;40.47;100407.97;4339603;32;33259;-87
2022/03/08 00:27:34;;;;;;;17.10;7.85;;;;;;;3.69;40.21;100400.84;4359520;32;32621;-86
2022/03/08 00:30:06;;;;;;;16.10;8.15;;;;;;;3.71;39.51;100406.94;4357433;32;32839;-86
2022/03/08 00:32:34;;;;;;;17.98;8.70;;;;;;;3.62;39.48;100399.16;4360455;32;34787;-85
2022/03/08 00:35:02;;;;;;;13.80;7.18;;;;;;;3.41;40.76;100407.09;4368476;32;33273;-85
2022/03/08 00:37:29;;;;;;;12.55;7.95;;;;;;;3.71;39.58;100401.72;4361616;32;32389;-85
2022/03/08 00:39:57;;;;;;;14.05;8.00;;;;;;;3.29;40.60;100402.81;4353896;32;32832;-85
2022/03/08 00:42:25;;;;;;;15.68;7.62;;;;;;;3.37;40.53;100400.13;4359902;32;34117;-86
2022/03/08 00:44:53;;;;;;;14.77;7.68;;;;;;;3.30;40.76;100401.91;4361498;32;35281;-86
2022/03/08 00:47:21;;;;;;;13.90;7.40;;;;;;;3.44;40.25;100394.88;4366558;32;33321;-88
2022/03/08 00:49:49;;;;;;;13.77;7.07;;;;;;;3.32;41.05;100388.00;4344435;32;33058;-88
2022/03/08 00:52:18;;;;;;;16.05;7.72;;;;;;;3.16;41.76;100391.53;4352589;32;32950;-90
2022/03/08 00:54:47;;;;;;;18.30;7.78;;;;;;;3.12;41.71;100395.03;4359938;32;33918;-90
2022/03/08 00:57:19;;;;;;;16.58;8.35;;;;;;;3.32;41.24;100393.22;4350840;32;32724;-89
2022/03/08 00:59:47;;;;;;;16.73;8.20;;;;;;;3.26;41.78;100388.00;4361248;32;33595;-89
2022/03/08 01:02:15;;;;;;;15.52;8.13;;;;;;;3.40;41.39;100389.69;4349641;32;33124;-89
2022/03/08 01:04:43;;;;;;;18.65;8.52;;;;;;;3.37;41.60;100395.81;4349328;32;32859;-89
2022/03/08 01:07:11;;;;;;;15.68;8.52;;;;;;;3.48;41.32;100388.78;4361852;32;32465;-89
2022/03/08 01:09:40;;;;;;;13.95;6.90;;;;;;;3.25;41.64;100395.84;4361601;32;33024;-89
2022/03/08 01:12:08;;;;;;;16.37;7.03;;;;;;;2.93;42.58;100389.00;4354803;32;33424;-89
2022/03/08 01:14:36;;;;;;;10.35;6.28;;;;;;;3.01;42.60;100389.00;4353390;32;33444;-89
2022/03/08 01:17:05;;;;;;;14.18;7.18;;;;;;;2.92;42.62;100384.66;4357742;32;32240;-90
2022/03/08 01:19:33;;;;;;;16.52;7.25;;;;;;;2.56;43.73;100385.63;4355642;32;32936;-89
2022/03/08 01:22:01;;;;;;;15.07;7.07;;;;;;;2.69;43.63;100392.56;4355214;32;34480;-89
2022/03/08 01:24:30;;;;;;;14.05;8.10;;;;;;;2.41;44.04;100393.47;4355479;32;32963;-90
2022/03/08 01:26:57;;;;;;;14.25;6.55;;;;;;;2.56;44.25;100393.44;4361499;32;33054;-89
2022/03/08 01:29:25;;;;;;;12.50;6.68;;;;;;;2.15;45.31;100402.19;4337664;32;35281;-90
2022/03/08 01:31:53;;;;;;;12.88;6.85;;;;;;;2.67;44.04;100394.31;4354197;32;33070;-89
2022/03/08 01:34:22;;;;;;;12.27;6.85;;;;;;;2.97;43.05;100395.09;4354227;32;32820;-90
2022/03/08 01:36:50;;;;;;;13.25;6.70;;;;;;;2.72;43.49;100387.34;4361900;32;33414;-89
2022/03/08 01:39:18;;;;;;;13.27;7.22;;;;;;;2.66;43.51;100391.69;4361754;32;33565;-89
2022/03/08 01:41:46;;;;;;;15.05;7.35;;;;;;;2.83;43.43;100388.16;4374303;32;33292;-89
2022/03/08 01:44:15;;;;;;;13.70;6.70;;;;;;;2.98;43.07;100387.25;4361532;32;33670;-90
2022/03/08 01:46:42;;;;;;;15.07;7.18;;;;;;;2.98;42.97;100386.37;4364136;32;31908;-89
2022/03/08 01:49:10;;;;;;;13.07;6.80;;;;;;;2.54;43.79;100390.84;4350820;32;33028;-89
2022/03/08 01:51:39;;;;;;;12.88;7.40;;;;;;;2.69;43.75;100394.28;4363132;32;34241;-89
2022/03/08 01:54:08;;;;;;;13.23;7.65;;;;;;;2.68;43.82;100393.44;4359159;32;33958;-89
2022/03/08 01:56:36;;;;;;;15.70;7.60;;;;;;;2.67;43.65;100391.69;4354339;32;32211;-90
2022/03/08 01:59:04;;;;;;;13.60;6.53;;;;;;;2.90;43.28;100385.56;4350082;32;33092;-89
2022/03/08 02:01:32;;;;;;;13.62;7.18;;;;;;;2.91;43.11;100392.50;4349918;32;33133;-90
2022/03/08 02:04:01;;;;;;;15.68;6.93;;;;;;;2.86;43.13;100386.44;4358280;32;35050;-87
2022/03/08 02:06:28;;;;;;;16.45;7.28;;;;;;;2.56;43.98;100389.13;4347699;32;32184;-89
2022/03/08 02:08:56;;;;;;;14.77;7.82;;;;;;;2.64;43.71;100391.69;4373505;32;32525;-89
2022/03/08 02:11:24;;;;;;;16.17;7.50;;;;;;;2.58;43.90;100391.72;4353919;32;34741;-90
2022/03/08 02:13:52;;;;;;;16.35;8.13;;;;;;;2.65;43.93;100392.56;4355333;32;33347;-87
2022/03/08 02:16:20;;;;;;;12.85;6.85;;;;;;;2.67;43.76;100386.47;4356709;32;32645;-85
2022/03/08 02:18:47;;;;;;;14.07;7.90;;;;;;;2.65;44.00;100390.81;4350035;32;32742;-84
2022/03/08 02:21:15;;;;;;;15.70;7.25;;;;;;;2.60;43.86;100387.34;4357218;32;32886;-84
2022/03/08 02:23:42;;;;;;;16.90;8.13;;;;;;;2.80;43.49;100392.50;4362484;32;33110;-84
2022/03/08 02:26:10;;;;;;;15.88;7.60;;;;;;;2.59;44.26;100393.44;4356193;32;32887;-85
2022/03/08 02:28:39;;;;;;;13.75;7.30;;;;;;;2.63;44.10;100395.19;4335349;33;33409;-85
2022/03/08 02:31:07;;;;;;;14.55;7.10;;;;;;;2.62;44.21;100385.63;4348861;32;34258;-84
2022/03/08 02:33:35;;;;;;;15.70;8.18;;;;;;;2.74;43.74;100390.78;4360417;32;33681;-88
2022/03/08 02:36:05;;;;;;;14.05;7.37;;;;;;;2.68;43.79;100383.00;4356543;32;33416;-89
2022/03/08 02:38:33;;;;;;;17.55;7.35;;;;;;;2.47;44.48;100393.44;4358981;32;33553;-88
2022/03/08 02:41:01;;;;;;;15.90;7.87;;;;;;;2.46;44.53;100391.72;4343992;32;33335;-89
2022/03/08 02:43:28;;;;;;;18.67;7.60;;;;;;;2.37;44.67;100391.72;4347676;32;33277;-88
2022/03/08 02:45:56;;;;;;;15.43;7.32;;;;;;;2.27;44.83;100391.72;4335418;33;32812;-88
2022/03/08 02:48:26;;;;;;;20.23;8.00;;;;;;;2.43;44.48;100391.75;4347713;32;34061;-87
2022/03/08 02:50:55;;;;;;;14.13;7.93;;;;;;;2.31;44.68;100393.47;4348187;32;34631;-85
2022/03/08 02:53:22;;;;;;;16.30;7.53;;;;;;;2.29;44.76;100395.22;4355705;32;32938;-86
2022/03/08 02:55:50;;;;;;;15.20;7.75;;;;;;;2.24;44.84;100393.50;4349205;32;32294;-86
2022/03/08 02:58:18;;;;;;;13.48;7.75;;;;;;;2.05;45.57;100395.22;4361936;32;32832;-86
2022/03/08 03:00:46;;;;;;;18.83;7.90;;;;;;;1.97;45.75;100389.16;4362113;32;34589;-88
2022/03/08 03:03:14;;;;;;;20.40;8.80;;;;;;;1.98;45.61;100393.47;4350371;32;33055;-89
2022/03/08 03:05:42;;;;;;;15.70;8.77;;;;;;;2.05;45.47;100401.31;4351287;32;32695;-89
2022/03/08 03:08:09;;;;;;;18.30;8.13;;;;;;;1.98;45.67;100403.91;4356439;32;32134;-88
2022/03/08 03:10:37;;;;;;;14.13;7.57;;;;;;;1.99;45.66;100397.81;4374533;32;33655;-86
2022/03/08 03:13:05;;;;;;;20.02;8.48;;;;;;;1.98;45.45;100402.16;4361754;32;33749;-86
2022/03/08 03:15:32;;;;;;;14.80;8.05;;;;;;;1.94;45.67;100394.34;4359007;32;33108;-86
2022/03/08 03:18:00;;;;;;;15.02;7.87;;;;;;;1.96;45.90;100408.25;4351249;32;33060;-85
2022/03/08 03:20:28;;;;;;;15.48;8.43;;;;;;;1.95;46.26;100401.31;4361274;32;34826;-86
2022/03/08 03:22:56;;;;;;;15.90;8.57;;;;;;;1.75;46.28;100402.13;4348860;32;32870;-86
2022/03/08 03:25:23;;;;;;;12.57;7.53;;;;;;;1.51;46.81;100396.87;4352470;32;32462;-85
2022/03/08 03:27:51;;;;;;;15.82;8.32;;;;;;;1.56;47.34;100405.56;4353452;32;32869;-86
2022/03/08 03:30:18;;;;;;;15.43;8.25;;;;;;;1.72;46.55;100407.34;4360098;32;33750;-86
2022/03/08 03:32:47;;;;;;;13.68;8.63;;;;;;;1.75;46.49;100412.53;4371274;32;33509;-86
2022/03/08 03:35:15;;;;;;;14.95;7.47;;;;;;;1.57;46.90;100407.31;4351869;32;32836;-86
2022/03/08 03:37:43;;;;;;;14.40;7.68;;;;;;;1.36;47.61;100407.25;4364729;32;33097;-86
2022/03/08 03:40:11;;;;;;;15.40;7.87;;;;;;;1.67;47.12;100397.78;4341201;32;34702;-87
2022/03/08 03:42:39;;;;;;;16.10;7.37;;;;;;;1.58;47.40;100403.84;4359267;32;34092;-88
2022/03/08 03:45:08;;;;;;;16.12;8.70;;;;;;;1.37;47.93;100409.84;4338637;32;32370;-87
2022/03/08 03:47:36;;;;;;;16.48;8.05;;;;;;;1.55;47.53;100416.84;4354267;32;32826;-88
2022/03/08 03:50:05;;;;;;;15.93;9.32;;;;;;;1.41;48.01;100408.12;4347915;32;33314;-88
2022/03/08 03:52:33;;;;;;;15.80;9.05;;;;;;;1.57;47.69;100401.22;4358831;32;32644;-88
2022/03/08 03:55:02;;;;;;;19.50;8.65;;;;;;;1.35;48.08;100403.78;4359726;32;33614;-88
2022/03/08 03:57:30;;;;;;;18.30;9.50;;;;;;;1.66;47.38;100402.13;4353366;32;33295;-86
2022/03/08 03:59:58;;;;;;;14.98;8.63;;;;;;;1.52;47.44;100398.62;4360194;32;34024;-85
2022/03/08 04:02:26;;;;;;;15.93;8.80;;;;;;;1.52;47.48;100396.03;4356666;32;33817;-88
2022/03/08 04:04:54;;;;;;;15.23;7.93;;;;;;;1.35;47.76;100392.50;4359432;32;32634;-88
2022/03/08 04:07:21;;;;;;;17.62;8.35;;;;;;;1.35;48.13;100389.91;4361098;32;33657;-88
2022/03/08 04:09:49;;;;;;;19.10;9.38;;;;;;;1.56;47.47;100397.75;4361235;32;33740;-88
2022/03/08 04:12:17;;;;;;;20.05;8.95;;;;;;;1.30;48.32;100397.69;4354691;32;34306;-88
2022/03/08 04:14:45;;;;;;;15.85;8.32;;;;;;;1.16;48.94;100397.63;4331827;32;32247;-88
2022/03/08 04:17:12;;;;;;;19.08;9.98;;;;;;;1.24;48.53;100393.34;4353559;32;33012;-87
2022/03/08 04:19:42;;;;;;;16.08;8.45;;;;;;;0.97;49.26;100394.09;4361107;32;33727;-87
2022/03/08 04:22:09;;;;;;;14.73;8.55;;;;;;;1.19;48.70;100405.47;4361154;32;32879;-86
2022/03/08 04:24:37;;;;;;;17.62;9.73;;;;;;;1.22;48.32;100408.06;4373373;32;33466;-86
2022/03/08 04:27:05;;;;;;;14.70;8.18;;;;;;;1.08;49.04;100406.25;4373297;32;32716;-87
2022/03/08 04:29:32;;;;;;;17.00;8.88;;;;;;;1.02;49.07;100407.97;4347194;33;33991;-86
2022/03/08 04:32:00;;;;;;;19.92;8.63;;;;;;;0.95;49.26;100410.53;4361951;32;32780;-86
2022/03/08 04:34:27;;;;;;;19.85;10.27;;;;;;;0.87;49.49;100417.44;4375467;32;31930;-86
2022/03/08 04:36:55;;;;;;;20.12;10.23;;;;;;;1.00;49.17;100414.03;4350854;32;33521;-86
2022/03/08 04:39:23;;;;;;;15.73;8.80;;;;;;;0.88;49.70;100413.97;4351136;32;33638;-88
2022/03/08 04:41:50;;;;;;;17.00;10.20;;;;;;;1.06;49.11;100402.78;4351239;32;33611;-88
2022/03/08 04:44:18;;;;;;;16.50;9.05;;;;;;;0.87;49.52;100410.50;4350985;32;32751;-88
2022/03/08 04:46:51;;;;;;;16.33;9.95;;;;;;;0.94;49.40;100411.38;4339274;32;32654;-88
2022/03/08 04:49:19;;;;;;;17.20;9.48;;;;;;;1.14;48.78;100409.78;4363235;32;33343;-88
2022/03/08 04:51:46;;;;;;;19.12;10.57;;;;;;;0.96;48.96;100414.88;4350626;32;32978;-86
2022/03/08 04:54:14;;;;;;;18.87;10.20;;;;;;;0.80;49.39;100407.84;4362675;32;34096;-86
2022/03/08 04:56:53;;;;;;;17.30;8.82;;;;;;;0.73;49.73;100407.81;4347761;33;34018;-87
2022/03/08 04:59:21;;;;;;;17.45;9.23;;;;;;;0.58;50.62;100405.12;4362031;32;33205;-87
2022/03/08 05:01:49;;;;;;;19.17;8.35;;;;;;;0.70;50.12;100407.78;4360298;32;34811;-87
2022/03/08 05:04:17;;;;;;;19.55;10.30;;;;;;;0.72;49.86;100403.50;4374344;32;34319;-87
2022/03/08 05:06:47;;;;;;;16.70;8.80;;;;;;;0.50;50.27;100412.00;4353704;32;32880;-86
2022/03/08 05:09:14;;;;;;;19.10;9.45;;;;;;;0.68;50.32;100406.94;4347121;32;33411;-87
2022/03/08 05:11:42;;;;;;;18.85;8.55;;;;;;;0.79;50.06;100408.72;4368264;32;32820;-87
2022/03/08 05:14:10;;;;;;;15.07;8.07;;;;;;;0.44;50.79;100407.63;4350138;32;33324;-86
2022/03/08 05:16:37;;;;;;;18.33;9.57;;;;;;;0.46;50.99;100399.84;4374035;32;33102;-87
2022/03/08 05:19:06;;;;;;;19.25;10.07;;;;;;;0.43;51.35;100405.03;4353937;32;33682;-88
2022/03/08 05:21:34;;;;;;;18.37;9.63;;;;;;;0.55;51.08;100397.31;4353076;32;32659;-88
2022/03/08 05:24:01;;;;;;;19.70;10.18;;;;;;;0.49;51.36;100407.66;4350626;32;31970;-88
2022/03/08 05:26:29;;;;;;;15.55;9.10;;;;;;;0.49;51.22;100399.87;4347949;32;32411;-87
2022/03/08 05:28:57;;;;;;;15.60;8.98;;;;;;;0.58;51.25;100394.75;4355339;32;33039;-87
2022/03/08 05:31:24;;;;;;;19.45;9.38;;;;;;;0.52;51.37;100392.09;4349097;32;33032;-87
2022/03/08 05:33:52;;;;;;;23.80;10.88;;;;;;;0.44;51.45;100398.97;4361353;32;33167;-87
2022/03/08 05:36:20;;;;;;;19.98;10.43;;;;;;;0.69;50.85;100406.06;4359322;32;35008;-86
2022/03/08 05:38:48;;;;;;;20.77;10.82;;;;;;;0.46;51.60;100410.25;4344863;32;34627;-87
2022/03/08 05:41:16;;;;;;;16.73;9.55;;;;;;;0.34;51.65;100411.03;4364857;32;33656;-87
2022/03/08 05:43:44;;;;;;;12.77;8.18;;;;;;;0.43;51.10;100410.25;4347288;32;32380;-86
2022/03/08 05:46:12;;;;;;;17.62;8.60;;;;;;;0.21;51.63;100415.25;4362099;32;32603;-89
2022/03/08 05:48:39;;;;;;;18.83;10.45;;;;;;;0.28;51.33;100415.28;4349499;32;33126;-89
2022/03/08 05:51:07;;;;;;;13.57;8.75;;;;;;;0.36;51.37;100414.50;4348660;32;33463;-88
2022/03/08 05:53:35;;;;;;;18.15;9.23;;;;;;;0.50;51.18;100418.06;4362897;32;33397;-88
2022/03/08 05:56:03;;;;;;;20.42;9.13;;;;;;;0.43;51.25;100412.84;4350380;32;32925;-87
2022/03/08 05:58:32;;;;;;;22.27;9.85;;;;;;;0.58;51.11;100412.94;4349585;32;33351;-89
2022/03/08 06:01:00;;;;;;;18.62;10.43;;;;;;;0.46;51.38;100423.22;4349003;32;32865;-88
2022/03/08 06:03:28;;;;;;;16.23;10.07;;;;;;;0.46;51.36;100431.03;4344488;32;33906;-88
2022/03/08 06:05:56;;;;;;;25.52;10.93;;;;;;;0.52;51.87;100425.84;4366102;32;32751;-87
2022/03/08 06:08:24;;;;;;;15.93;10.25;;;;;;;0.55;51.93;100415.50;4355653;32;33483;-89
2022/03/08 06:10:53;;;;;;;17.27;9.93;;;;;;;0.61;51.72;100423.31;4348662;32;32773;-89
2022/03/08 06:13:20;;;;;;;27.40;11.68;;;;;;;0.78;51.61;100423.44;4357051;32;33287;-88
2022/03/08 06:15:48;;;;;;;19.55;10.63;;;;;;;0.80;51.71;100421.72;4344639;32;33688;-88
2022/03/08 06:18:17;;;;;;;23.23;9.82;;;;;;;0.95;51.53;100421.81;4359795;32;33476;-88
2022/03/08 06:20:45;;;;;;;18.80;9.90;;;;;;;1.08;51.34;100421.88;4359577;32;32496;-88
2022/03/08 06:23:13;;;;;;;20.85;9.95;;;;;;;1.05;51.58;100422.72;4359784;32;32723;-88
2022/03/08 06:25:41;;;;;;;22.90;13.05;;;;;;;1.26;51.25;100422.81;4347494;32;34283;-88
2022/03/08 06:28:09;;;;;;;28.62;11.63;;;;;;;1.51;51.09;100428.97;4356152;32;34265;-87
2022/03/08 06:30:36;;;;;;;19.08;10.48;;;;;;;1.28;51.89;100423.72;4348137;32;32767;-88
2022/03/08 06:33:05;;;;;;;19.95;10.40;;;;;;;1.35;52.16;100427.19;4361235;32;32623;-88
2022/03/08 06:35:32;;;;;;;22.70;12.48;;;;;;;1.42;52.10;100431.53;4354963;32;34297;-87
2022/03/08 06:38:00;;;;;;;19.50;10.13;;;;;;;1.52;52.11;100433.34;4365935;32;34484;-88
2022/03/08 06:40:28;;;;;;;24.02;11.32;;;;;;;1.39;52.48;100430.69;4355920;32;33720;-88
2022/03/08 06:42:56;;;;;;;19.45;11.50;;;;;;;1.56;52.46;100433.31;4356032;32;33347;-88
2022/03/08 06:45:24;;;;;;;22.67;11.27;;;;;;;1.58;52.46;100435.06;4353898;32;34166;-88
2022/03/08 06:47:52;;;;;;;16.20;10.43;;;;;;;1.67;52.40;100435.09;4354381;32;33975;-88
2022/03/08 06:50:19;;;;;;;21.73;9.95;;;;;;;1.99;51.69;100437.78;4354763;32;32305;-88
2022/03/08 06:52:48;;;;;;;26.33;12.27;;;;;;;1.94;52.04;100438.62;4347043;32;32414;-87
2022/03/08 06:55:16;;;;;;;21.20;12.05;;;;;;;1.91;51.93;100439.50;4372888;32;33930;-88
2022/03/08 06:57:44;;;;;;;18.87;10.25;;;;;;;2.00;52.11;100443.84;4352925;32;34238;-87
2022/03/08 07:00:11;;;;;;;21.67;11.25;;;;;;;2.53;50.72;100435.19;4347523;32;32406;-88
2022/03/08 07:02:39;;;;;;;21.73;10.52;;;;;;;2.45;51.44;100442.12;4348309;32;32182;-88
2022/03/08 07:05:08;;;;;;;15.07;9.88;;;;;;;2.72;50.41;100444.72;4359730;32;34649;-88
2022/03/08 07:07:38;;;;;;;17.33;9.95;;;;;;;2.65;50.71;100445.56;4370748;32;33645;-87
2022/03/08 07:10:09;;;;;;;17.98;11.32;;;;;;;3.08;49.61;100450.69;4359417;32;32349;-87
2022/03/08 07:12:36;;;;;;;21.70;11.70;;;;;;;3.22;49.21;100443.69;4343610;32;32259;-87
2022/03/08 07:15:06;;;;;;;17.80;10.35;;;;;;;3.29;48.98;100437.59;4359974;32;32372;-88
2022/03/08 07:17:34;;;;;;;23.30;11.63;;;;;;;3.08;49.25;100448.97;4344163;32;33367;-87
2022/03/08 07:20:03;;;;;;;41.30;18.12;;;;;;;3.46;48.52;100436.63;4359839;32;34533;-88
2022/03/08 07:22:32;;;;;;;32.78;15.95;;;;;;;3.65;48.15;100446.13;4360026;32;32263;-87
2022/03/08 07:25:00;;;;;;;20.52;12.20;;;;;;;3.75;47.82;100434.78;4335167;32;33024;-88
2022/03/08 07:27:28;;;;;;;19.52;10.80;;;;;;;3.76;47.84;100435.62;4340345;32;32363;-87
2022/03/08 07:29:55;;;;;;;14.82;10.05;;;;;;;4.20;47.24;100440.56;4347415;32;33242;-88
2022/03/08 07:32:23;;;;;;;27.05;12.07;;;;;;;4.34;46.81;100441.31;4359854;32;33273;-88
2022/03/08 07:34:51;;;;;;;22.27;11.20;;;;;;;4.46;47.00;100437.72;4354890;32;32408;-87
2022/03/08 07:37:19;;;;;;;19.67;9.68;;;;;;;4.66;45.60;100448.03;4359664;32;32943;-88
2022/03/08 07:39:47;;;;;;;18.23;10.32;;;;;;;4.81;45.43;100437.41;4358163;32;33500;-88
2022/03/08 07:42:15;;;;;;;23.70;9.50;;;;;;;4.77;45.05;100440.94;4358832;32;33205;-88
2022/03/08 07:44:42;;;;;;;21.08;12.23;;;;;;;4.85;45.35;100433.00;4357956;32;33478;-87
2022/03/08 07:47:11;;;;;;;18.35;10.30;;;;;;;5.27;44.68;100436.91;4359529;32;35067;-88
2022/03/08 07:49:38;;;;;;;19.73;10.18;;;;;;;5.75;43.43;100429.31;4347066;32;33173;-87
2022/03/08 07:52:06;;;;;;;16.80;9.27;;;;;;;5.78;43.15;100434.47;4359674;32;32198;-88
2022/03/08 07:54:34;;;;;;;17.67;10.23;;;;;;;5.67;43.41;100438.16;4339361;32;32821;-88
2022/03/08 07:57:02;;;;;;;19.52;9.68;;;;;;;5.95;42.29;100433.41;4352197;32;34172;-88
2022/03/08 07:59:30;;;;;;;17.35;9.27;;;;;;;5.97;42.10;100435.12;4352862;32;33433;-87
2022/03/08 08:01:58;;;;;;;17.33;9.93;;;;;;;5.91;42.33;100437.81;4360033;32;32368;-88
2022/03/08 08:04:26;;;;;;;15.18;9.23;;;;;;;5.87;42.63;100439.59;4360888;32;34652;-88
2022/03/08 08:06:54;;;;;;;17.95;9.50;;;;;;;5.98;42.69;100434.25;4349051;32;32871;-88
2022/03/08 08:09:22;;;;;;;14.60;7.53;;;;;;;6.45;41.44;100427.34;4373271;32;33234;-88
2022/03/08 08:11:52;;;;;;;19.75;9.00;;;;;;;6.72;40.73;100428.66;4373090;32;32201;-88
2022/03/08 08:14:20;;;;;;;18.62;9.65;;;;;;;6.86;40.20;100428.41;4355628;32;32878;-88
2022/03/08 08:16:48;;;;;;;16.52;8.90;;;;;;;6.65;39.87;100419.16;4354201;32;33676;-87
2022/03/08 08:19:16;;;;;;;16.85;7.90;;;;;;;6.87;39.73;100423.13;4366703;32;33695;-88
2022/03/08 08:21:44;;;;;;;16.75;8.73;;;;;;;7.01;38.99;100420.22;4373786;32;33237;-88
2022/03/08 08:24:12;;;;;;;14.75;8.25;;;;;;;6.97;38.92;100421.19;4359978;32;33521;-88
2022/03/08 08:26:40;;;;;;;17.80;8.50;;;;;;;7.16;39.50;100419.06;4341924;32;35139;-88
2022/03/08 08:29:08;;;;;;;15.80;8.85;;;;;;;7.09;39.03;100422.72;4355359;32;33454;-88
2022/03/08 08:31:36;;;;;;;14.35;8.75;;;;;;;7.06;39.63;100418.38;4367051;32;34157;-88
2022/03/08 08:34:05;;;;;;;15.15;8.05;;;;;;;7.12;38.93;100420.00;4354165;32;33541;-88
2022/03/08 08:36:33;;;;;;;18.33;8.50;;;;;;;7.90;38.92;100419.22;4366671;32;33944;-87
2022/03/08 08:39:01;;;;;;;19.83;8.02;;;;;;;8.13;36.26;100416.06;4349185;32;32019;-87
2022/03/08 08:41:29;;;;;;;15.10;8.25;;;;;;;8.18;36.47;100415.97;4373818;32;33151;-88
2022/03/08 08:43:57;;;;;;;15.73;8.20;;;;;;;8.08;36.48;100414.47;4373992;32;33125;-88
2022/03/08 08:46:24;;;;;;;13.90;8.70;;;;;;;8.42;36.31;100406.63;4373598;32;34680;-88
2022/03/08 08:48:53;;;;;;;11.90;7.62;;;;;;;8.12;36.42;100419.59;4373725;32;33574;-87
2022/03/08 08:51:20;;;;;;;13.05;8.43;;;;;;;8.31;36.47;100412.12;4348403;32;33576;-88
2022/03/08 08:53:48;;;;;;;14.18;8.52;;;;;;;8.14;37.17;100406.41;4348649;32;33191;-88
2022/03/08 08:56:16;;;;;;;14.52;8.52;;;;;;;7.75;37.85;100406.44;4353106;32;32572;-88
2022/03/08 08:58:43;;;;;;;13.90;7.90;;;;;;;8.19;36.79;100412.41;4342793;32;34203;-88
2022/03/08 09:01:11;;;;;;;13.10;7.57;;;;;;;8.77;35.25;100405.72;4356255;32;31716;-88
2022/03/08 09:03:40;;;;;;;15.43;7.37;;;;;;;9.14;33.94;100409.97;4361255;32;33757;-88
2022/03/08 09:06:07;;;;;;;13.70;7.80;;;;;;;8.97;35.00;100392.00;4348393;32;32525;-88
2022/03/08 09:08:35;;;;;;;9.73;6.70;;;;;;;9.04;35.86;100395.34;4360352;32;34242;-88
2022/03/08 09:11:05;;;;;;;14.00;7.30;;;;;;;9.63;33.83;100390.09;4361296;32;33104;-88
2022/03/08 09:13:33;;;;;;;9.23;5.97;;;;;;;9.88;32.15;100385.78;4365956;32;33652;-88
2022/03/08 09:16:01;;;;;;;9.98;6.10;;;;;;;9.96;31.79;100389.03;4354885;32;32906;-88
2022/03/08 09:18:29;;;;;;;8.90;6.47;;;;;;;8.83;33.42;100384.50;4361640;32;34401;-87
2022/03/08 09:20:57;;;;;;;14.02;6.50;;;;;;;9.05;33.46;100381.25;4355207;32;31672;-88
2022/03/08 09:23:25;;;;;;;9.68;6.82;;;;;;;9.84;32.69;100386.81;4359252;32;33442;-88
2022/03/08 09:25:53;;;;;;;13.20;7.12;;;;;;;10.32;31.08;100377.38;4359021;32;33984;-88
2022/03/08 09:28:21;;;;;;;10.10;6.50;;;;;;;10.36;31.83;100382.50;4360391;32;33619;-88
2022/03/08 09:30:51;;;;;;;10.63;6.50;;;;;;;9.85;31.85;100383.25;4347821;32;32740;-88
2022/03/08 09:33:20;;;;;;;6.40;3.90;;;;;;;10.09;32.51;100381.59;4353490;32;33812;-88
2022/03/08 09:35:47;;;;;;;6.10;4.70;;;;;;;10.61;28.86;100377.25;4360773;32;33233;-88
2022/03/08 09:38:15;;;;;;;9.15;5.35;;;;;;;10.39;28.76;100378.88;4360161;32;33493;-88
2022/03/08 09:40:44;;;;;;;8.80;4.78;;;;;;;10.05;30.32;100384.38;4354693;32;32185;-88
2022/03/08 09:43:12;;;;;;;5.93;3.95;;;;;;;9.97;29.69;100379.37;4352205;32;32440;-88
2022/03/08 09:45:39;;;;;;;8.05;4.00;;;;;;;10.15;29.71;100386.66;4373115;32;33658;-88
2022/03/08 09:48:08;;;;;;;8.63;4.97;;;;;;;9.56;28.97;100388.56;4373044;32;34578;-88
2022/03/08 09:50:36;;;;;;;8.02;4.15;;;;;;;9.35;31.63;100388.28;4369630;32;33327;-87
2022/03/08 09:53:04;;;;;;;5.43;3.90;;;;;;;9.66;28.42;100390.00;4363263;32;33552;-87
2022/03/08 09:55:32;;;;;;;9.48;4.65;;;;;;;9.74;28.60;100394.13;4360293;32;33351;-88
2022/03/08 09:57:59;;;;;;;6.35;3.97;;;;;;;9.95;29.26;100384.69;4350702;32;32536;-88
2022/03/08 10:00:29;;;;;;;8.65;4.40;;;;;;;10.15;27.91;100378.75;4342599;32;32719;-87
2022/03/08 10:02:58;;;;;;;11.15;4.82;;;;;;;10.19;28.43;100384.78;4360766;32;34220;-87
2022/03/08 10:05:43;;;;;;;8.25;4.60;;;;;;;9.86;29.39;100394.66;4366927;32;33937;-88
2022/03/08 10:08:22;;;;;;;9.93;5.18;;;;;;;9.71;29.54;100394.22;4364751;32;33642;-88
2022/03/08 10:10:53;;;;;;;9.57;5.55;;;;;;;9.32;30.02;100393.66;4360116;32;32076;-87
2022/03/08 10:13:25;;;;;;;8.68;4.53;;;;;;;9.60;31.55;100390.19;4348308;32;32835;-87
2022/03/08 10:16:12;;;;;;;11.15;4.55;;;;;;;9.82;29.68;100380.69;4359930;32;33621;-87
2022/03/08 10:18:50;;;;;;;9.10;5.07;;;;;;;10.08;29.15;100386.94;4358767;32;34126;-88
2022/03/08 10:21:24;;;;;;;6.20;4.85;;;;;;;9.97;29.50;100397.84;4355497;32;33041;-88
2022/03/08 10:23:53;;;;;;;7.87;4.80;;;;;;;10.02;30.97;100395.91;4371824;32;34707;-87
2022/03/08 10:26:21;;;;;;;9.63;4.93;;;;;;;9.65;29.60;100396.19;4368713;32;33415;-88
2022/03/08 10:28:50;;;;;;;8.10;4.95;;;;;;;10.67;28.86;100384.09;4359473;32;33819;-87
2022/03/08 10:31:19;;;;;;;8.68;4.35;;;;;;;11.17;27.68;100377.00;4355828;32;33838;-88
2022/03/08 10:33:49;;;;;;;8.40;4.72;;;;;;;10.88;28.90;100379.84;4372565;32;33379;-87
2022/03/08 10:36:21;;;;;;;6.85;4.60;;;;;;;10.77;28.09;100380.22;4347722;32;33124;-90
2022/03/08 10:39:03;;;;;;;;;;;;;;;11.19;27.20;100377.78;4366689;32;33148;-89
2022/03/08 10:41:30;;;;;;;9.65;5.10;;;;;;;11.00;27.59;100376.75;4359606;32;33527;-89
2022/03/08 10:43:59;;;;;;;6.57;4.25;;;;;;;11.03;27.45;100384.56;4351892;32;32922;-89
2022/03/08 10:46:27;;;;;;;6.82;4.12;;;;;;;11.11;28.78;100379.00;4361291;32;33958;-90
2022/03/08 10:48:55;;;;;;;8.60;4.43;;;;;;;11.49;27.55;100365.22;4360573;32;33753;-87
2022/03/08 10:51:23;;;;;;;5.57;3.95;;;;;;;11.40;27.64;100365.56;4361031;32;32529;-88
2022/03/08 10:53:52;;;;;;;10.10;4.50;;;;;;;11.57;27.80;100371.97;4351220;32;34212;-88
2022/03/08 10:56:23;;;;;;;6.60;4.03;;;;;;;11.67;28.69;100362.75;4353460;32;33045;-88
2022/03/08 10:58:52;;;;;;;6.95;3.83;;;;;;;11.51;25.79;100366.00;4360942;32;32738;-89
2022/03/08 11:01:19;;;;;;;12.68;6.07;;;;;;;12.20;24.58;100358.00;4360853;32;34661;-89
2022/03/08 11:03:55;;;;;;;7.57;4.53;;;;;;;11.55;25.97;100366.75;4361131;32;33775;-88
2022/03/08 11:06:25;;;;;;;6.35;5.12;;;;;;;11.52;26.67;100365.09;4353492;32;33130;-88
2022/03/08 11:08:52;;;;;;;7.28;5.35;;;;;;;11.99;28.84;100365.03;4341131;32;33356;-89
2022/03/08 11:11:21;;;;;;;6.07;4.72;;;;;;;11.72;25.31;100368.72;4360390;32;34533;-87
2022/03/08 11:13:54;;;;;;;6.05;4.20;;;;;;;11.15;25.84;100364.75;4360300;32;32873;-90
2022/03/08 11:16:22;;;;;;;7.18;3.90;;;;;;;12.17;26.58;100351.97;4361139;32;34652;-88
2022/03/08 11:18:51;;;;;;;8.82;4.30;;;;;;;11.63;25.92;100361.16;4354194;32;33628;-88
2022/03/08 11:21:19;;;;;;;7.32;3.95;;;;;;;11.42;25.77;100347.00;4360833;32;32266;-87
2022/03/08 11:23:48;;;;;;;5.65;4.40;;;;;;;12.10;24.04;100348.69;4353280;32;32795;-86
2022/03/08 11:26:16;;;;;;;6.22;4.05;;;;;;;11.56;24.48;100349.09;4352790;32;32959;-87
2022/03/08 11:28:48;;;;;;;11.35;5.12;;;;;;;10.96;24.79;100354.84;4352468;32;33126;-87